createdAt,value
2018-11-22T00:02:15.381Z,13.27
2018-11-22T00:04:45.489Z,11.73
2018-11-22T00:07:15.245Z,11.63
2018-11-22T00:09:45.033Z,12.47
2018-11-22T00:12:14.834Z,14.77
2018-11-22T00:14:44.644Z,12.53
2018-11-22T00:17:14.942Z,13.13
2018-11-22T00:19:44.781Z,12.70
2018-11-22T00:22:14.687Z,12.73
2018-11-22T00:24:44.423Z,11.83
2018-11-22T00:27:14.620Z,12.77
2018-11-22T00:29:44.538Z,12.73
2018-11-22T00:32:14.298Z,13.30
2018-11-22T00:34:44.172Z,14.60
2018-11-22T00:37:14.381Z,13.53
2018-11-22T00:39:43.996Z,12.13
2018-11-22T00:42:13.903Z,14.40
2018-11-22T00:44:43.415Z,13.20
2018-11-22T00:47:13.331Z,14.37
2018-11-22T00:49:43.628Z,13.37
2018-11-22T00:52:13.569Z,13.73
2018-11-22T00:54:43.966Z,12.90
2018-11-22T00:57:13.904Z,13.33
2018-11-22T00:59:43.493Z,12.90
2018-11-22T01:02:13.671Z,11.60
2018-11-22T01:04:43.503Z,12.73
2018-11-22T01:07:13.092Z,14.40
2018-11-22T01:09:42.698Z,13.80
2018-11-22T01:12:12.579Z,13.60
2018-11-22T01:14:42.409Z,13.87
2018-11-22T01:17:12.548Z,13.37
2018-11-22T01:19:42.267Z,11.30
2018-11-22T01:22:11.833Z,13.30
2018-11-22T01:24:41.986Z,14.17
2018-11-22T01:27:11.564Z,13.33
2018-11-22T01:29:41.349Z,12.17
2018-11-22T01:32:12.010Z,13.60
2018-11-22T01:34:41.836Z,13.00
2018-11-22T01:37:12.237Z,13.80
2018-11-22T01:39:41.735Z,13.33
2018-11-22T01:42:11.562Z,13.47
2018-11-22T01:44:41.657Z,11.60
2018-11-22T01:47:11.784Z,12.97
2018-11-22T01:49:41.600Z,13.63
2018-11-22T01:52:11.520Z,14.70
2018-11-22T01:54:41.770Z,11.47
2018-11-22T01:57:12.461Z,14.33
2018-11-22T01:59:42.410Z,14.53
2018-11-22T02:02:12.310Z,13.10
2018-11-22T02:04:42.288Z,15.07
2018-11-22T02:07:12.126Z,13.53
2018-11-22T02:09:42.237Z,14.77
2018-11-22T02:12:11.916Z,14.47
2018-11-22T02:14:42.065Z,14.70
2018-11-22T02:17:12.597Z,13.87
2018-11-22T02:19:42.727Z,15.30
2018-11-22T02:22:13.062Z,16.63
2018-11-22T02:24:43.252Z,14.57
2018-11-22T02:27:13.109Z,15.20
2018-11-22T02:29:42.886Z,15.40
2018-11-22T02:32:12.801Z,15.37
2018-11-22T02:34:42.605Z,13.97
2018-11-22T02:37:13.026Z,17.70
2018-11-22T02:39:42.957Z,17.10
2018-11-22T02:42:13.086Z,16.93
2018-11-22T02:44:43.227Z,16.17
2018-11-22T02:47:13.444Z,18.50
2018-11-22T02:49:43.123Z,17.87
2018-11-22T02:52:13.095Z,17.47
2018-11-22T02:54:43.256Z,14.70
2018-11-22T02:57:13.450Z,16.03
2018-11-22T02:59:43.490Z,16.23
2018-11-22T03:02:13.455Z,15.73
2018-11-22T03:04:43.574Z,16.67
2018-11-22T03:07:13.441Z,17.50
2018-11-22T03:09:43.915Z,17.17
2018-11-22T03:12:13.484Z,17.27
2018-11-22T03:14:43.320Z,18.67
2018-11-22T03:17:13.205Z,18.20
2018-11-22T03:19:43.049Z,16.67
2018-11-22T03:22:12.827Z,15.73
2018-11-22T03:24:42.308Z,18.30
2018-11-22T03:27:12.048Z,19.00
2018-11-22T03:29:42.532Z,16.97
2018-11-22T03:32:12.677Z,19.23
2018-11-22T03:34:42.600Z,19.50
2018-11-22T03:37:12.714Z,17.50
2018-11-22T03:39:42.678Z,19.07
2018-11-22T03:42:13.069Z,16.80
2018-11-22T03:44:42.983Z,19.77
2018-11-22T03:47:12.884Z,20.33
2018-11-22T03:49:43.553Z,19.33
2018-11-22T03:52:14.678Z,17.90
2018-11-22T03:54:44.797Z,19.50
2018-11-22T03:57:14.405Z,19.70
2018-11-22T03:59:44.246Z,20.33
2018-11-22T04:02:14.970Z,20.50
2018-11-22T04:04:44.592Z,17.47
2018-11-22T04:07:14.184Z,20.30
2018-11-22T04:09:44.111Z,19.77
2018-11-22T04:12:14.298Z,19.40
2018-11-22T04:14:44.193Z,19.17
2018-11-22T04:17:13.675Z,20.50
2018-11-22T04:19:43.815Z,17.17
2018-11-22T04:22:14.836Z,19.87
2018-11-22T04:24:44.457Z,19.30
2018-11-22T04:27:15.012Z,20.87
2018-11-22T04:29:45.112Z,21.43
2018-11-22T04:32:14.985Z,21.07
2018-11-22T04:34:45.189Z,19.57
2018-11-22T04:37:15.131Z,19.07
2018-11-22T04:39:46.004Z,19.50
2018-11-22T04:42:15.492Z,21.53
2018-11-22T04:44:45.312Z,19.83
2018-11-22T04:47:15.492Z,20.50
2018-11-22T04:49:45.455Z,21.00
2018-11-22T04:52:15.684Z,22.60
2018-11-22T04:54:46.758Z,19.97
2018-11-22T04:57:16.667Z,20.20
2018-11-22T04:59:46.568Z,20.03
2018-11-22T05:02:16.690Z,19.30
2018-11-22T05:04:46.589Z,21.20
2018-11-22T05:07:17.712Z,21.17
2018-11-22T05:09:47.311Z,22.43
2018-11-22T05:12:17.425Z,18.03
2018-11-22T05:14:47.331Z,20.37
2018-11-22T05:17:17.771Z,19.13
2018-11-22T05:19:47.967Z,20.97
2018-11-22T05:22:18.799Z,20.80
2018-11-22T05:24:48.986Z,18.70
2018-11-22T05:27:19.804Z,19.07
2018-11-22T05:29:50.038Z,22.07
2018-11-22T05:32:20.248Z,18.57
2018-11-22T05:34:50.794Z,23.43
2018-11-22T05:37:21.024Z,19.20
2018-11-22T05:39:50.797Z,22.57
2018-11-22T05:42:20.980Z,22.03
2018-11-22T05:44:51.159Z,19.57
2018-11-22T05:47:21.139Z,20.73
2018-11-22T05:49:50.735Z,19.53
2018-11-22T05:52:20.674Z,19.77
2018-11-22T05:54:50.777Z,20.97
2018-11-22T05:57:20.853Z,20.47
2018-11-22T05:59:51.229Z,20.60
2018-11-22T06:02:21.193Z,21.37
2018-11-22T06:04:50.965Z,20.23
2018-11-22T06:07:20.474Z,21.37
2018-11-22T06:09:50.299Z,20.83
2018-11-22T06:12:20.278Z,22.00
2018-11-22T06:14:49.791Z,22.40
2018-11-22T06:17:19.665Z,21.03
2018-11-22T06:19:50.396Z,23.27
2018-11-22T06:22:20.279Z,23.13
2018-11-22T06:24:51.271Z,20.33
2018-11-22T06:27:21.116Z,21.33
2018-11-22T06:29:51.250Z,21.50
2018-11-22T06:32:21.237Z,21.27
2018-11-22T06:34:51.908Z,20.63
2018-11-22T06:37:21.562Z,21.23
2018-11-22T06:39:51.341Z,22.13
2018-11-22T06:42:21.223Z,21.90
2018-11-22T06:44:51.393Z,20.93
2018-11-22T06:47:20.877Z,20.77
2018-11-22T06:49:50.715Z,18.63
2018-11-22T06:52:20.954Z,19.73
2018-11-22T06:54:50.782Z,19.37
2018-11-22T06:57:20.797Z,22.53
2018-11-22T06:59:51.071Z,20.00
2018-11-22T07:02:21.327Z,18.83
2018-11-22T07:04:51.775Z,20.70
2018-11-22T07:07:21.372Z,22.37
2018-11-22T07:09:50.985Z,22.40
2018-11-22T07:12:20.929Z,22.33
2018-11-22T07:14:51.283Z,20.07
2018-11-22T07:17:21.576Z,22.70
2018-11-22T07:19:51.581Z,21.47
2018-11-22T07:22:21.749Z,22.17
2018-11-22T07:24:51.324Z,20.63
2018-11-22T07:27:21.139Z,19.30
2018-11-22T07:29:50.611Z,19.20
2018-11-22T07:32:20.898Z,22.43
2018-11-22T07:34:51.033Z,21.80
2018-11-22T07:37:20.819Z,21.87
2018-11-22T07:39:50.733Z,22.50
2018-11-22T07:42:20.303Z,23.00
2018-11-22T07:44:50.427Z,21.07
2018-11-22T07:47:20.544Z,23.70
2018-11-22T07:49:50.455Z,21.57
2018-11-22T07:52:20.461Z,21.43
2018-11-22T07:54:50.282Z,22.70
2018-11-22T07:57:20.200Z,21.10
2018-11-22T07:59:50.025Z,21.83
2018-11-22T08:02:20.548Z,18.60
2018-11-22T08:04:50.555Z,21.83
2018-11-22T08:07:20.141Z,19.10
2018-11-22T08:09:50.897Z,19.40
2018-11-22T08:12:25.790Z,21.17
2018-11-22T08:14:50.757Z,18.67
2018-11-22T08:17:21.495Z,19.03
2018-11-22T08:19:51.393Z,19.00
2018-11-22T08:22:21.678Z,21.07
2018-11-22T08:24:52.670Z,18.90
2018-11-22T08:27:22.635Z,21.37
2018-11-22T08:29:53.122Z,20.97
2018-11-22T08:32:22.633Z,21.10
2018-11-22T08:34:52.912Z,20.53
2018-11-22T08:37:22.814Z,22.47
2018-11-22T08:39:53.322Z,20.43
2018-11-22T08:42:23.463Z,22.50
2018-11-22T08:44:53.689Z,20.27
2018-11-22T08:47:23.796Z,21.87
2018-11-22T08:49:53.621Z,23.30
2018-11-22T08:52:23.212Z,19.83
2018-11-22T08:54:53.177Z,23.03
2018-11-22T08:57:24.295Z,22.07
2018-11-22T08:59:55.011Z,19.83
2018-11-22T09:02:25.137Z,21.00
2018-11-22T09:04:55.355Z,21.73
2018-11-22T09:07:25.999Z,21.80
2018-11-22T09:09:56.669Z,18.80
2018-11-22T09:12:26.741Z,19.33
2018-11-22T09:14:56.218Z,21.60
2018-11-22T09:17:26.369Z,20.40
2018-11-22T09:19:56.211Z,19.20
2018-11-22T09:22:26.163Z,19.63
2018-11-22T09:24:56.400Z,19.40
2018-11-22T09:27:26.677Z,18.33
2018-11-22T09:29:56.746Z,22.63
2018-11-22T09:32:27.064Z,21.20
2018-11-22T09:34:57.079Z,20.87
2018-11-22T09:37:27.387Z,22.10
2018-11-22T09:39:56.881Z,18.67
2018-11-22T09:42:26.534Z,20.03
2018-11-22T09:44:56.893Z,20.50
2018-11-22T09:47:26.953Z,19.57
2018-11-22T09:49:56.791Z,19.90
2018-11-22T09:52:27.269Z,18.50
2018-11-22T09:54:57.479Z,19.60
2018-11-22T09:57:27.385Z,19.97
2018-11-22T09:59:57.185Z,18.83
2018-11-22T10:02:27.270Z,19.03
2018-11-22T10:04:58.094Z,23.63
2018-11-22T10:07:28.146Z,20.40
2018-11-22T10:09:58.101Z,22.70
2018-11-22T10:12:28.223Z,20.03
2018-11-22T10:14:57.865Z,20.83
2018-11-22T10:17:28.232Z,19.07
2018-11-22T10:19:58.681Z,20.07
2018-11-22T10:22:29.550Z,19.60
2018-11-22T10:24:59.475Z,17.60
2018-11-22T10:27:30.377Z,19.07
2018-11-22T10:30:04.554Z,21.33
2018-11-22T10:32:34.331Z,20.87
2018-11-22T10:35:04.653Z,18.63
2018-11-22T10:37:34.778Z,18.67
2018-11-22T10:40:05.461Z,21.50
2018-11-22T10:42:35.545Z,17.60
2018-11-22T10:45:06.507Z,20.20
2018-11-22T10:47:36.469Z,19.70
2018-11-22T10:50:07.639Z,19.23
2018-11-22T10:52:37.650Z,20.17
2018-11-22T10:55:10.355Z,19.83
2018-11-22T10:57:41.740Z,18.70
2018-11-22T11:00:33.734Z,18.27
2018-11-22T11:03:21.109Z,18.33
2018-11-22T11:06:08.425Z,19.13
2018-11-22T11:08:38.268Z,17.30
2018-11-22T11:11:08.211Z,17.27
2018-11-22T11:13:38.132Z,16.40
2018-11-22T11:16:08.501Z,18.67
2018-11-22T11:18:38.907Z,20.90
2018-11-22T11:21:08.508Z,21.30
2018-11-22T12:16:40.515Z,19.17
2018-11-22T12:19:08.884Z,19.20
2018-11-22T12:21:37.061Z,17.70
2018-11-22T12:24:05.730Z,17.03
2018-11-22T12:26:33.921Z,19.00
2018-11-22T12:29:02.090Z,19.83
2018-11-22T12:31:30.269Z,18.13
2018-11-22T12:34:03.828Z,15.90
2018-11-22T12:37:39.177Z,16.43
2018-11-22T12:40:07.485Z,20.03
2018-11-22T12:42:35.648Z,17.70
2018-11-22T12:45:04.666Z,19.40
2018-11-22T12:47:33.540Z,18.10
2018-11-22T12:50:02.462Z,17.30
2018-11-22T12:52:30.607Z,18.27
2018-11-22T12:54:58.983Z,17.27
2018-11-22T12:57:27.503Z,18.00
2018-11-22T12:59:56.156Z,19.77
2018-11-22T13:02:24.565Z,16.93
2018-11-22T13:04:53.128Z,15.83
2018-11-22T13:07:21.302Z,17.57
2018-11-22T13:09:49.891Z,16.53
2018-11-22T13:12:18.117Z,16.67
2018-11-22T13:14:46.372Z,16.50
2018-11-22T13:17:14.521Z,16.57
2018-11-22T13:19:42.693Z,16.83
2018-11-22T13:22:10.892Z,18.90
2018-11-22T13:24:39.387Z,17.87
2018-11-22T13:27:07.613Z,15.80
2018-11-22T13:29:35.785Z,17.87
2018-11-22T13:32:03.969Z,17.10
2018-11-22T13:34:32.672Z,18.30
2018-11-22T13:37:00.928Z,16.13
2018-11-22T13:39:29.103Z,16.00
2018-11-22T13:41:57.253Z,15.53
2018-11-22T13:44:25.424Z,16.20
2018-11-22T13:46:53.599Z,15.87
2018-11-22T13:49:21.829Z,17.50
2018-11-22T13:51:50.036Z,16.20
2018-11-22T13:54:18.233Z,17.50
2018-11-22T13:56:46.395Z,16.73
2018-11-22T13:59:15.168Z,17.73
2018-11-22T14:01:43.328Z,15.83
2018-11-22T14:04:11.537Z,15.67
2018-11-22T14:06:39.688Z,15.97
2018-11-22T14:09:09.520Z,17.77
2018-11-22T14:11:37.697Z,15.40
2018-11-22T14:14:06.222Z,15.87
2018-11-22T14:16:34.395Z,15.27
2018-11-22T14:19:03.148Z,18.03
2018-11-22T14:21:31.319Z,17.33
2018-11-22T14:24:00.165Z,15.63
2018-11-22T14:26:28.338Z,17.57
2018-11-22T14:28:56.519Z,16.73
2018-11-22T14:31:24.943Z,14.87
2018-11-22T14:33:53.497Z,17.13
2018-11-22T14:36:21.733Z,16.33
2018-11-22T14:38:49.914Z,16.50
2018-11-22T14:41:18.071Z,16.23
2018-11-22T14:43:46.939Z,15.10
2018-11-22T14:46:15.138Z,16.73
2018-11-22T14:48:43.312Z,15.67
2018-11-22T14:51:15.923Z,15.43
2018-11-22T14:53:44.398Z,15.77
2018-11-22T14:56:12.595Z,17.60
2018-11-22T14:58:40.832Z,16.03
2018-11-22T15:01:09.038Z,17.53
2018-11-22T15:03:37.223Z,14.97
2018-11-22T15:06:05.656Z,17.20
2018-11-22T15:08:33.852Z,14.03
2018-11-22T15:11:02.025Z,15.13
2018-11-22T15:13:30.200Z,15.13
2018-11-22T15:15:58.396Z,16.13
2018-11-22T15:18:27.196Z,15.47
2018-11-22T15:21:01.120Z,15.57
2018-11-22T15:23:23.592Z,15.57
2018-11-22T15:25:51.731Z,16.50
2018-11-22T15:28:20.296Z,15.03
2018-11-22T15:30:48.443Z,15.80
2018-11-22T15:33:16.656Z,15.20
2018-11-22T15:35:44.859Z,15.03
2018-11-22T15:38:13.072Z,14.73
2018-11-22T15:40:41.873Z,16.57
2018-11-22T15:43:10.044Z,15.07
2018-11-22T15:45:38.228Z,14.87
2018-11-22T15:48:06.420Z,15.30
2018-11-22T15:50:34.950Z,16.23
2018-11-22T15:53:03.104Z,15.70
2018-11-22T15:55:31.293Z,14.73
2018-11-22T15:58:00.431Z,16.90
2018-11-22T16:00:32.113Z,14.73
2018-11-22T16:03:00.857Z,16.83
2018-11-22T16:05:29.436Z,16.80
2018-11-22T16:07:57.633Z,15.37
2018-11-22T16:30:34.562Z,15.87
2018-11-22T16:33:02.890Z,16.63
2018-11-22T16:35:33.552Z,15.73
2018-11-22T16:38:00.372Z,16.83
2018-11-22T16:40:29.442Z,16.33
2018-11-22T16:42:59.082Z,16.33
2018-11-22T16:45:30.630Z,16.30
2018-11-22T16:48:00.076Z,16.20
2018-11-22T16:50:29.514Z,18.40
2018-11-22T16:52:57.862Z,16.47
2018-11-22T16:55:26.882Z,17.60
2018-11-22T16:57:56.212Z,16.77
2018-11-22T17:00:33.639Z,17.80
2018-11-22T17:03:03.388Z,15.73
2018-11-22T17:05:31.732Z,17.50
2018-11-22T17:08:00.650Z,17.37
2018-11-22T17:10:30.084Z,16.53
2018-11-22T17:12:59.535Z,17.87
2018-11-22T17:15:29.382Z,16.50
2018-11-22T17:17:58.151Z,17.43
2018-11-22T17:20:27.271Z,17.87
2018-11-22T17:22:55.799Z,18.20
2018-11-22T17:25:25.333Z,17.93
2018-11-22T17:27:57.094Z,17.37
2018-11-22T17:30:27.860Z,17.67
2018-11-22T17:33:00.438Z,16.77
2018-11-22T17:35:29.370Z,19.37
2018-11-22T17:37:59.512Z,16.57
2018-11-22T17:40:38.010Z,17.07
2018-11-22T17:43:06.973Z,15.97
2018-11-22T17:45:37.679Z,18.10
2018-11-22T17:48:06.508Z,19.27
2018-11-22T17:50:36.561Z,20.20
2018-11-22T17:53:05.346Z,19.20
2018-11-22T17:55:34.162Z,18.43
2018-11-22T17:58:02.502Z,18.27
2018-11-22T18:00:32.326Z,18.83
2018-11-22T18:03:01.657Z,17.93
2018-11-22T18:05:29.898Z,18.67
2018-11-22T18:07:58.154Z,17.47
2018-11-22T18:10:27.916Z,16.70
2018-11-22T18:12:56.581Z,18.03
2018-11-22T18:15:25.879Z,18.70
2018-11-22T18:17:54.750Z,18.17
2018-11-22T18:20:27.442Z,18.37
2018-11-22T18:22:56.830Z,17.33
2018-11-22T18:25:27.622Z,17.33
2018-11-22T18:27:56.862Z,19.00
2018-11-22T18:30:27.528Z,18.47
2018-11-22T18:32:57.014Z,18.13
2018-11-22T18:35:25.291Z,18.10
2018-11-22T18:37:53.659Z,18.17
2018-11-22T18:40:24.110Z,17.80
2018-11-22T18:42:53.456Z,18.37
2018-11-22T18:45:27.115Z,19.40
2018-11-22T18:47:55.704Z,19.57
2018-11-22T18:50:25.100Z,18.87
2018-11-22T18:52:53.501Z,17.73
2018-11-22T18:55:21.945Z,17.40
2018-11-22T18:57:50.535Z,18.53
2018-11-22T19:00:22.269Z,17.60
2018-11-22T19:02:50.967Z,16.10
2018-11-22T19:05:19.691Z,18.37
2018-11-22T19:07:49.124Z,17.00
2018-11-22T19:10:36.630Z,17.57
2018-11-22T19:13:06.399Z,17.17
2018-11-22T19:15:36.718Z,18.73
2018-11-22T19:18:05.510Z,18.37
2018-11-22T19:20:35.315Z,18.87
2018-11-22T19:23:04.511Z,16.80
2018-11-22T19:25:32.767Z,19.20
2018-11-22T19:28:01.980Z,19.53
2018-11-22T19:30:37.078Z,19.23
2018-11-22T19:33:01.415Z,18.27
2018-11-22T19:35:31.733Z,18.10
2018-11-22T19:38:00.826Z,18.37
2018-11-22T19:40:30.440Z,19.67
2018-11-22T19:43:00.149Z,17.60
2018-11-22T19:45:29.949Z,17.93
2018-11-22T19:47:58.226Z,18.20
2018-11-22T19:50:27.526Z,19.63
2018-11-22T19:52:56.521Z,18.97
2018-11-22T19:55:27.390Z,18.67
2018-11-22T19:57:58.390Z,19.40
2018-11-22T20:00:27.281Z,17.77
2018-11-22T20:02:57.311Z,18.03
2018-11-22T20:05:26.400Z,18.87
2018-11-22T20:07:56.226Z,18.47
2018-11-22T20:10:27.023Z,17.83
2018-11-22T20:12:55.361Z,17.83
2018-11-22T20:15:23.699Z,19.13
2018-11-22T20:17:52.648Z,18.27
2018-11-22T20:20:21.579Z,18.03
2018-11-22T20:22:50.023Z,18.50
2018-11-22T20:25:18.295Z,17.20
2018-11-22T20:27:46.554Z,17.53
2018-11-22T20:30:17.021Z,18.37
2018-11-22T20:32:45.630Z,19.20
2018-11-22T20:35:15.570Z,17.63
2018-11-22T20:37:44.627Z,17.93
2018-11-22T20:40:14.258Z,18.90
2018-11-22T20:42:42.714Z,16.87
2018-11-22T20:45:12.930Z,18.80
2018-11-22T20:47:41.940Z,18.10
2018-11-22T20:50:12.628Z,17.67
2018-11-22T20:52:40.990Z,18.67
2018-11-22T20:55:13.646Z,16.73
2018-11-22T20:57:41.946Z,17.07
2018-11-22T21:00:13.550Z,15.80
2018-11-22T21:02:41.851Z,17.70
2018-11-22T21:05:11.117Z,18.37
2018-11-22T21:07:39.630Z,18.13
2018-11-22T21:10:10.226Z,17.50
2018-11-22T21:12:39.026Z,17.23
2018-11-22T21:15:11.406Z,18.50
2018-11-22T21:17:39.904Z,18.17
2018-11-22T21:20:09.403Z,17.93
2018-11-22T21:22:37.855Z,17.40
2018-11-22T21:25:07.973Z,16.87
2018-11-22T21:27:36.326Z,15.37
2018-11-22T21:30:07.537Z,16.13
2018-11-22T21:32:35.871Z,15.97
2018-11-22T21:35:04.625Z,16.97
2018-11-22T21:37:32.831Z,16.20
2018-11-22T21:40:01.065Z,16.27
2018-11-22T21:42:29.367Z,15.93
2018-11-22T21:44:57.685Z,16.57
2018-11-22T21:47:25.919Z,15.77
2018-11-22T21:49:54.122Z,15.60
2018-11-22T21:52:22.371Z,16.70
2018-11-22T21:54:50.660Z,14.03
2018-11-22T21:57:18.909Z,15.97
2018-11-22T21:59:47.178Z,17.27
2018-11-22T22:02:15.511Z,16.73
2018-11-22T22:04:43.731Z,14.60
2018-11-22T22:07:12.043Z,15.97
2018-11-22T22:09:40.475Z,16.67
2018-11-22T22:12:09.887Z,15.77
2018-11-22T22:14:38.226Z,15.63
2018-11-22T22:17:06.438Z,14.90
2018-11-22T22:19:34.744Z,16.17
2018-11-22T22:22:03.070Z,16.97
2018-11-22T22:24:31.415Z,15.77
2018-11-22T22:26:59.608Z,16.13
2018-11-22T22:29:27.838Z,15.90
2018-11-22T22:31:56.363Z,16.37
2018-11-22T22:34:24.637Z,15.37
2018-11-22T22:36:52.871Z,17.17
2018-11-22T22:39:21.261Z,16.17
2018-11-22T22:41:49.504Z,15.37
2018-11-22T22:44:17.822Z,15.77
2018-11-22T22:46:46.234Z,15.93
2018-11-22T22:49:14.607Z,17.37
2018-11-22T22:51:42.950Z,15.83
2018-11-22T22:54:11.208Z,15.37
2018-11-22T22:56:39.714Z,15.97
2018-11-22T22:59:08.634Z,16.27
2018-11-22T23:01:36.967Z,16.93
2018-11-22T23:04:05.395Z,16.33
2018-11-22T23:06:33.763Z,15.13
2018-11-22T23:09:02.228Z,16.83
2018-11-22T23:11:30.697Z,16.23
2018-11-22T23:13:59.412Z,15.73
2018-11-22T23:16:27.657Z,15.43
2018-11-22T23:18:55.927Z,16.80
2018-11-22T23:21:24.987Z,15.40
2018-11-22T23:23:53.501Z,15.20
2018-11-22T23:26:21.743Z,16.23
2018-11-22T23:28:49.982Z,14.63
2018-11-22T23:31:18.227Z,14.87
2018-11-22T23:33:46.461Z,16.10
2018-11-22T23:36:14.764Z,15.50
2018-11-22T23:38:43.060Z,15.67
2018-11-22T23:41:11.303Z,15.90
2018-11-22T23:43:39.533Z,15.23
2018-11-22T23:46:07.959Z,15.77
2018-11-22T23:48:36.287Z,16.87
2018-11-22T23:51:04.899Z,16.07
2018-11-22T23:53:33.171Z,16.70
2018-11-22T23:56:01.446Z,16.10
2018-11-22T23:58:29.760Z,15.30
